Terminal Aerodrome Forecast
Issued by NWS Boston, MA

Current Version | Previous Version | Text Only | Print | Product List | Glossary On
Versions: 1 2 3 4 5 6 7 8 9 10 11 12 13 14 15 16 17 18 19 20 21 22 23 24 25 26 27 28 29 30
000 FTUS41 KBOX 240909 AAA TAFORH TAF AMD KORH 240909Z 2409/2506 08004KT 1/4SM -RA FG OVC002 FM241000 11005KT 2SM -RA BR OVC008 WS020/17045KT FM241400 19012G26KT P6SM OVC008 WS020/19040KT FM242100 20014G29KT P6SM BKN010 FM250500 23012G21KT P6SM BKN250=

USA.gov is the U.S. government's official web portal to all federal, state and local government web resources and services.